Alert Bay, Canada
Current Conditions -  °F | °C
As of 4:00 AM on Friday 24 Oct 2014 (Local Time) from CYZT Reporting Station
Scattered Clouds Scattered Clouds  
Wind Chill: 37°   Ceiling: Unl
Heat Index: 41°   Visibility: 15mi
Dew Point: 39°   Wind: 6mph
Humidity: 93%   Direction: 170°S
Pressure: 29.95"   Gusts: NA
Location:  50.58°N, 126.92°W
Report Text: CYZT 241100Z 17005KT 15SM FEW100 SCT220 05/04 A2995 RMK AC1CI3 AC TR SLP142
Loading
Personal Weather Stations






























Interactive Weather Map
Tropical Storm Tracking
New forecast layout! Learn more

10-Day Weather Forecast

Advertisements
Track Severe Weather on mobile